• Join FlightAware (Why Join?)
  • Login
  • US Flag 
02:46PM EDT


 

Airport Tracker/Info


-or-


 

Live Flight TrackerFlight Track Log ✈ N6345B ✈ 16-Jul-2014 ✈ KCRG - KDAB

Flight Track Log - Related Links

Times and Time Zones

All times are in EDT time to prevent confusion due to time zone crossing. See the N6345B flight status page for this flight to view local times or setup timezone preferences in your user account.

Time Position Orientation Groundspeed Altitude Reporting Facility
EDT Latitude Longitude Course Direction KTS MPH feet Rate Location/Type
08:39AM 30.3092 -81.5236 181° South 86 99 800  Level Jacksonville Center
08:40AM 30.3111 -81.4897 86° East 99 114 1,400 480 Climbing Jacksonville Center
08:41AM 30.3128 -81.4586 86° East 108 124 1,800 480 Climbing Jacksonville Center
08:42AM 30.3103 -81.4225 95° East 110 127 2,400 540 Climbing Jacksonville Center
08:43AM 30.2892 -81.4083 150° Southeast 77 89 3,000 540 Climbing Jacksonville Center
08:44AM 30.2703 -81.3989 157° South 70 81 3,500 480 Climbing Jacksonville Center
08:45AM 30.2514 -81.3992 181° South 70 81 4,000 180 Climbing Jacksonville Center
08:46AM 30.2222 -81.3972 177° South 102 117 4,000  Level Jacksonville Center
08:48AM 30.1911 -81.4003 185° South 105 121 4,000  Level Jacksonville Center
08:49AM 30.1575 -81.4008 181° South 102 117 4,000  Level Jacksonville Center
08:49AM 30.1347 -81.4011 181° South 100 115 4,000  Level Jacksonville Center
08:50AM 30.1053 -81.4017 181° South 102 117 4,000  Level Jacksonville Center
08:51AM 30.0783 -81.4019 181° South 102 117 4,000  Level Jacksonville Center
08:52AM 30.0511 -81.4047 185° South 102 117 4,000  Level Jacksonville Center
08:54AM 30.0178 -81.4078 185° South 100 115 4,000  Level Jacksonville Center
08:55AM 29.9928 -81.4106 185° South 94 108 4,000  Level Jacksonville Center
08:55AM 29.9697 -81.4108 181° South 99 114 4,000  Level Jacksonville Center
08:56AM 29.9550 -81.4039 158° South 101 116 4,000  Level Jacksonville Center
08:57AM 29.9217 -81.3925 164° South 106 122 4,000  Level Jacksonville Center
08:58AM 29.8964 -81.3831 162° South 108 124 4,000  Level Jacksonville Center
08:59AM 29.8692 -81.3742 164° South 108 124 4,000  Level Jacksonville Center
09:00AM 29.8397 -81.3625 161° South 109 125 4,000  Level Jacksonville Center
09:01AM 29.8147 -81.3508 158° South 110 127 4,000  Level Jacksonville Center
09:02AM 29.7975 -81.3128 118° Southeast 134 154 4,000  Level Jacksonville Center
09:03AM 29.7742 -81.2847 134° Southeast 120 138 4,000  Level Jacksonville Center
09:04AM 29.7486 -81.2586 138° Southeast 120 138 4,000  Level Jacksonville Center
09:05AM 29.7256 -81.2328 136° Southeast 121 139 4,000  Level Jacksonville Center
09:06AM 29.7000 -81.2069 139° Southeast 129 148 4,000  Level Jacksonville Center
09:07AM 29.6706 -81.1836 145° Southeast 126 145 4,000  Level Jacksonville Center
09:08AM 29.6367 -81.1578 146° Southeast 125 144 4,000  Level Jacksonville Center
09:09AM 29.6094 -81.1344 143° Southeast 125 144 4,000  Level Jacksonville Center
09:10AM 29.5819 -81.1111 144° Southeast 103 119 4,000 -300 Level Jacksonville Center
09:11AM 29.5522 -81.0878 146° Southeast 125 144 3,400 -540 Descending Jacksonville Center
09:12AM 29.5231 -81.0836 173° South 110 127 3,000 -240 Descending Jacksonville Center
09:13AM 29.4958 -81.0792 172° South 99 114 3,000 -300 Level Jacksonville Center
09:14AM 29.4772 -81.0939 215° Southwest 92 106 2,400 -600 Descending Jacksonville Center
09:15AM 29.4650 -81.1203 242° Southwest 103 119 1,800 -660 Descending Jacksonville Center
09:16AM 29.4614 -81.1561 263° West 115 132 1,100 -600 Descending Jacksonville Center
09:17AM 29.4617 -81.1847 271° West 81 93 600 -540 Descending Jacksonville Center
09:19AM 29.4328 -81.1629 147° Southeast  Level FlightAware Approximate
09:26AM 29.2556 -81.0894 180° South  Level Estimated
09:27AM 29.2305 -81.0783 159° South  Level FlightAware Approximate
09:28AM 29.2054 -81.0671 159° South  Level FlightAware Approximate